Time;durP1;ratioP1;P1;durP2;ratioP2;P2;SDS_P1;SDS_P2;PMS_P1;PMS_P2;Temp;Humidity;BMP_temperature;BMP_pressure;BME280_temperature;BME280_humidity;BME280_pressure;Samples;Min_cycle;Max_cycle;Signal;HPM_P1;HPM_P2
2023/05/11 00:01:07;;;;;;;17.15;11.45;;;12.50;99.90;;;;;;5026265;28;20476;-80
2023/05/11 00:03:33;;;;;;;13.70;10.00;;;12.60;99.90;;;;;;5008756;28;20033;-79
2023/05/11 00:05:59;;;;;;;14.70;10.80;;;12.60;99.90;;;;;;5010833;28;20029;-80
2023/05/11 00:08:25;;;;;;;24.90;16.35;;;12.60;99.90;;;;;;5025055;28;20108;-79
2023/05/11 00:10:50;;;;;;;17.58;11.27;;;12.60;99.90;;;;;;5045211;28;20131;-79
2023/05/11 00:13:16;;;;;;;16.38;12.05;;;12.50;99.90;;;;;;5011146;28;20036;-80
2023/05/11 00:15:41;;;;;;;24.55;16.17;;;12.40;99.90;;;;;;5044609;28;20051;-80
2023/05/11 00:18:07;;;;;;;26.30;17.00;;;12.40;99.90;;;;;;5024791;28;20025;-79
2023/05/11 00:20:32;;;;;;;26.30;16.40;;;12.50;99.90;;;;;;5026074;28;20024;-79
2023/05/11 00:22:58;;;;;;;26.27;18.35;;;12.50;99.90;;;;;;5025228;28;20056;-79
2023/05/11 00:25:23;;;;;;;15.55;11.30;;;12.60;99.90;;;;;;5027308;28;20061;-79
2023/05/11 00:27:49;;;;;;;24.80;14.80;;;12.50;99.90;;;;;;5038110;28;20055;-79
2023/05/11 00:30:15;;;;;;;22.73;16.30;;;12.50;99.90;;;;;;5041566;28;20045;-79
2023/05/11 00:32:44;;;;;;;26.85;17.35;;;12.60;99.90;;;;;;5042587;28;20313;-79
2023/05/11 00:35:10;;;;;;;22.27;14.48;;;12.60;99.90;;;;;;5026551;28;20041;-80
2023/05/11 00:37:36;;;;;;;19.73;12.18;;;12.50;99.90;;;;;;5026260;28;20029;-79
2023/05/11 00:40:02;;;;;;;22.55;13.25;;;12.70;99.90;;;;;;5024525;28;20071;-80
2023/05/11 00:42:28;;;;;;;21.65;12.85;;;12.70;99.90;;;;;;5026798;28;20450;-79
2023/05/11 00:44:53;;;;;;;13.93;10.25;;;12.70;99.90;;;;;;5025127;28;20041;-79
2023/05/11 00:47:19;;;;;;;20.30;14.02;;;12.90;99.90;;;;;;5022835;28;20032;-79
2023/05/11 00:49:45;;;;;;;24.35;15.38;;;12.90;99.90;;;;;;5025096;28;20033;-79
2023/05/11 00:52:10;;;;;;;15.73;11.73;;;12.80;99.90;;;;;;5022821;28;20030;-80
2023/05/11 00:54:36;;;;;;;18.63;12.25;;;12.90;99.90;;;;;;5021411;28;20043;-80
2023/05/11 00:57:02;;;;;;;26.30;16.50;;;12.90;99.90;;;;;;5021787;28;20044;-80
2023/05/11 00:59:28;;;;;;;17.20;11.48;;;13.00;99.90;;;;;;5041243;28;20472;-80
2023/05/11 01:01:54;;;;;;;30.27;20.33;;;12.90;99.90;;;;;;5024526;28;20095;-79
2023/05/11 01:04:20;;;;;;;19.77;13.70;;;13.00;99.90;;;;;;5038227;28;20041;-79
2023/05/11 01:06:51;;;;;;;26.33;16.42;;;12.90;99.90;;;;;;5009219;28;20029;-80
2023/05/11 01:09:26;;;;;;;31.63;19.38;;;12.90;99.90;;;;;;5040590;28;20048;-79
2023/05/11 01:12:04;;;;;;;29.20;20.48;;;12.90;99.90;;;;;;5024609;28;20485;-80
2023/05/11 01:14:43;;;;;;;18.00;12.20;;;12.80;99.90;;;;;;5040100;28;20765;-80
2023/05/11 01:17:10;;;;;;;19.27;13.98;;;12.90;99.90;;;;;;5008122;28;20484;-80
2023/05/11 01:19:42;;;;;;;19.20;12.40;;;13.10;99.90;;;;;;5022701;28;20071;-80
2023/05/11 01:22:27;;;;;;;23.33;15.00;;;13.00;99.90;;;;;;5040797;28;20139;-80
2023/05/11 01:25:25;;;;;;;18.33;12.77;;;13.00;99.90;;;;;;5021487;28;20090;-81
2023/05/11 01:28:09;;;;;;;27.90;18.60;;;13.10;99.90;;;;;;4995770;28;20190;-80
2023/05/11 01:31:03;;;;;;;27.17;18.40;;;13.00;99.90;;;;;;5023425;28;20045;-80
2023/05/11 01:33:31;;;;;;;22.20;14.95;;;13.00;99.90;;;;;;5039451;28;20508;-80
2023/05/11 01:36:03;;;;;;;23.00;16.33;;;13.00;99.90;;;;;;5007108;28;20025;-80
2023/05/11 01:38:31;;;;;;;26.13;16.33;;;12.90;99.90;;;;;;5001817;28;20090;-80
2023/05/11 01:40:57;;;;;;;31.88;21.08;;;13.00;99.90;;;;;;5023792;28;20431;-80
2023/05/11 01:43:24;;;;;;;28.35;18.33;;;13.00;99.90;;;;;;5009167;28;20030;-80
2023/05/11 01:45:49;;;;;;;29.67;18.63;;;12.80;99.90;;;;;;5022685;28;20025;-80
2023/05/11 01:48:18;;;;;;;21.50;14.88;;;12.70;99.90;;;;;;5020345;28;20447;-79
2023/05/11 01:50:43;;;;;;;21.27;15.05;;;12.80;99.90;;;;;;5036275;28;20579;-80
2023/05/11 01:53:10;;;;;;;19.88;13.30;;;12.90;99.90;;;;;;5023549;28;20116;-80
2023/05/11 01:55:36;;;;;;;20.55;13.02;;;13.00;99.90;;;;;;5004950;28;20143;-80
2023/05/11 01:58:02;;;;;;;23.63;16.55;;;13.10;99.90;;;;;;5038502;28;20061;-80
2023/05/11 02:00:27;;;;;;;23.98;15.40;;;13.10;99.90;;;;;;5023174;28;20029;-80
2023/05/11 02:02:53;;;;;;;24.88;17.65;;;12.90;99.90;;;;;;5024121;28;20478;-80
2023/05/11 02:05:21;;;;;;;17.83;12.45;;;12.90;99.90;;;;;;5042609;28;20052;-80
2023/05/11 02:07:48;;;;;;;18.95;11.77;;;12.70;99.90;;;;;;5028866;28;20037;-80
2023/05/11 02:10:13;;;;;;;25.15;14.60;;;13.00;99.90;;;;;;5028567;28;20025;-80
2023/05/11 02:12:39;;;;;;;18.92;13.30;;;13.00;99.90;;;;;;5025393;28;20477;-80
2023/05/11 02:15:05;;;;;;;20.58;14.27;;;13.00;99.90;;;;;;5010998;28;20400;-80
2023/05/11 02:17:31;;;;;;;21.52;14.20;;;13.00;99.90;;;;;;5028079;28;20086;-81
2023/05/11 02:19:57;;;;;;;19.83;12.55;;;13.00;99.90;;;;;;5042144;28;20029;-81
2023/05/11 02:22:22;;;;;;;30.13;18.60;;;12.90;99.90;;;;;;5043639;28;20043;-81
2023/05/11 02:24:48;;;;;;;22.67;13.85;;;12.90;99.90;;;;;;5028565;28;20509;-81
2023/05/11 02:27:13;;;;;;;21.45;14.52;;;12.80;99.90;;;;;;5026419;28;20025;-81
2023/05/11 02:29:39;;;;;;;20.83;15.10;;;12.80;99.90;;;;;;5042320;28;20047;-81
2023/05/11 02:32:08;;;;;;;24.75;14.40;;;12.90;99.90;;;;;;5011790;28;21482;-81
2023/05/11 02:34:46;;;;;;;20.70;12.15;;;12.90;99.90;;;;;;5026743;28;20059;-81
2023/05/11 02:37:13;;;;;;;20.80;14.73;;;12.90;99.90;;;;;;5007099;28;20498;-79
2023/05/11 02:39:40;;;;;;;24.80;15.07;;;12.90;99.90;;;;;;5023319;28;20393;-81
2023/05/11 02:42:10;;;;;;;28.80;15.85;;;12.80;99.90;;;;;;5028769;28;20116;-81
2023/05/11 02:44:36;;;;;;;23.73;16.58;;;12.80;99.90;;;;;;5007333;28;20037;-80
2023/05/11 02:47:02;;;;;;;17.60;11.55;;;12.80;99.90;;;;;;5041838;28;20504;-81
2023/05/11 02:49:29;;;;;;;28.67;17.25;;;12.80;99.90;;;;;;5024608;28;20044;-80
2023/05/11 02:51:55;;;;;;;22.63;15.10;;;12.80;99.90;;;;;;5024843;28;20038;-80
2023/05/11 02:54:20;;;;;;;28.30;19.45;;;12.80;99.90;;;;;;5026211;28;20025;-79
2023/05/11 02:56:46;;;;;;;24.80;18.25;;;12.90;99.90;;;;;;5026404;28;20400;-76
2023/05/11 02:59:11;;;;;;;27.48;18.00;;;12.80;99.90;;;;;;5001209;28;20063;-78
2023/05/11 03:01:38;;;;;;;27.40;19.50;;;12.80;99.90;;;;;;5024691;28;20041;-78
2023/05/11 03:04:04;;;;;;;34.40;22.70;;;12.70;99.90;;;;;;5023229;28;20075;-78
2023/05/11 03:06:30;;;;;;;35.78;24.23;;;12.70;99.90;;;;;;5007687;28;20492;-78
2023/05/11 03:08:55;;;;;;;38.60;24.77;;;12.70;99.90;;;;;;5023007;28;20033;-78
2023/05/11 03:11:21;;;;;;;33.17;23.75;;;12.50;99.90;;;;;;5008299;28;20056;-78
2023/05/11 03:13:47;;;;;;;37.33;24.42;;;12.50;99.90;;;;;;5027059;28;20104;-78
2023/05/11 03:16:12;;;;;;;35.28;25.25;;;12.50;99.90;;;;;;5024950;28;20084;-78
2023/05/11 03:18:38;;;;;;;33.67;22.40;;;12.50;99.90;;;;;;5023349;28;20691;-78
2023/05/11 03:21:04;;;;;;;38.58;25.55;;;12.50;99.90;;;;;;5026775;28;20056;-78
2023/05/11 03:23:29;;;;;;;32.15;21.60;;;12.40;99.90;;;;;;5027705;28;20098;-78
2023/05/11 03:25:56;;;;;;;33.63;24.00;;;12.40;99.90;;;;;;5038354;28;20465;-79
2023/05/11 03:28:22;;;;;;;26.35;18.52;;;12.40;99.90;;;;;;5040546;28;20033;-79
2023/05/11 03:30:47;;;;;;;35.17;25.40;;;12.50;99.90;;;;;;5008634;28;20087;-78
2023/05/11 03:33:13;;;;;;;33.92;24.27;;;12.50;99.90;;;;;;5026208;28;20029;-78
2023/05/11 03:35:38;;;;;;;30.55;21.17;;;12.40;99.90;;;;;;5026768;28;20086;-78
2023/05/11 03:38:04;;;;;;;34.05;24.17;;;12.30;99.90;;;;;;5026696;28;20061;-78
2023/05/11 03:40:32;;;;;;;33.63;23.23;;;12.30;99.90;;;;;;5027308;28;20029;-78
2023/05/11 03:42:59;;;;;;;27.50;19.55;;;12.40;99.90;;;;;;5024104;28;20969;-78
2023/05/11 03:45:24;;;;;;;27.02;19.63;;;12.40;99.90;;;;;;5042027;28;20090;-78
2023/05/11 03:47:50;;;;;;;26.33;19.10;;;12.30;99.90;;;;;;5039367;28;20163;-78
2023/05/11 03:50:16;;;;;;;28.52;19.67;;;12.30;99.90;;;;;;5028092;28;20386;-78
2023/05/11 03:52:41;;;;;;;23.77;16.90;;;12.30;99.90;;;;;;5024758;28;20030;-78
2023/05/11 03:55:07;;;;;;;31.65;22.02;;;12.40;99.90;;;;;;5025500;28;20029;-78
2023/05/11 03:57:33;;;;;;;27.33;18.55;;;12.40;99.90;;;;;;5026104;28;20475;-78
2023/05/11 03:59:59;;;;;;;28.15;18.77;;;12.40;99.90;;;;;;5026630;28;20116;-77
2023/05/11 04:02:24;;;;;;;27.85;21.30;;;12.40;99.90;;;;;;5025890;28;20033;-76
2023/05/11 04:04:51;;;;;;;20.45;15.48;;;12.40;99.90;;;;;;5026675;28;20028;-77
2023/05/11 04:07:17;;;;;;;20.02;15.57;;;12.40;99.90;;;;;;5026772;28;20025;-77
2023/05/11 04:09:43;;;;;;;19.45;14.73;;;12.50;99.90;;;;;;5042774;28;20045;-77
2023/05/11 04:12:08;;;;;;;22.17;16.25;;;12.60;99.90;;;;;;5042570;28;20044;-77
2023/05/11 04:14:34;;;;;;;19.60;15.15;;;12.70;99.90;;;;;;5008397;28;20037;-77
2023/05/11 04:17:00;;;;;;;25.98;16.80;;;12.70;99.90;;;;;;5025239;28;20120;-76
2023/05/11 04:19:25;;;;;;;22.85;17.42;;;12.70;99.90;;;;;;5024293;28;20468;-78
2023/05/11 04:21:51;;;;;;;25.75;18.70;;;12.70;99.90;;;;;;5041469;28;20116;-78
2023/05/11 04:24:16;;;;;;;26.83;18.70;;;12.70;99.90;;;;;;5024998;28;20029;-79
2023/05/11 04:26:42;;;;;;;24.27;17.90;;;12.60;99.90;;;;;;5026558;28;20036;-78
2023/05/11 04:29:07;;;;;;;26.33;19.20;;;12.50;99.90;;;;;;5022235;28;20095;-78
2023/05/11 04:31:33;;;;;;;27.85;20.00;;;12.50;99.90;;;;;;5025371;28;20059;-79
2023/05/11 04:33:59;;;;;;;34.10;24.10;;;12.50;99.90;;;;;;5025178;28;20130;-78
2023/05/11 04:36:24;;;;;;;21.58;16.65;;;12.60;99.90;;;;;;5023331;28;20033;-78
2023/05/11 04:38:51;;;;;;;26.48;17.45;;;12.60;99.90;;;;;;5024403;28;20440;-78
2023/05/11 04:41:17;;;;;;;30.92;20.30;;;12.70;99.90;;;;;;5008062;28;20604;-78
2023/05/11 04:43:43;;;;;;;32.15;20.55;;;12.70;99.90;;;;;;5024273;28;20036;-79
2023/05/11 04:46:08;;;;;;;25.85;18.15;;;12.60;99.90;;;;;;5009716;28;20116;-80
2023/05/11 04:48:34;;;;;;;25.90;18.77;;;12.70;99.90;;;;;;5023463;28;20032;-80
2023/05/11 04:51:02;;;;;;;21.42;15.38;;;12.70;99.90;;;;;;5024726;28;20047;-79
2023/05/11 04:53:28;;;;;;;23.15;15.77;;;12.80;99.90;;;;;;5008832;28;20033;-78
2023/05/11 04:55:53;;;;;;;22.30;16.92;;;12.90;99.90;;;;;;5021384;28;20040;-77
2023/05/11 04:58:19;;;;;;;28.70;20.58;;;12.80;99.90;;;;;;5041563;28;20799;-77
2023/05/11 05:00:44;;;;;;;26.95;19.48;;;12.90;99.90;;;;;;5008843;28;20218;-77
2023/05/11 05:03:10;;;;;;;33.97;22.52;;;12.90;99.90;;;;;;5024618;28;20029;-78
2023/05/11 05:05:37;;;;;;;30.67;19.58;;;12.80;99.90;;;;;;5008358;28;20033;-79
2023/05/11 05:08:03;;;;;;;24.25;17.05;;;12.90;99.90;;;;;;5024328;28;20033;-80
2023/05/11 05:10:28;;;;;;;24.45;17.08;;;12.80;99.90;;;;;;5026250;28;20631;-77
2023/05/11 05:12:54;;;;;;;36.70;24.40;;;12.90;99.90;;;;;;5040451;28;20479;-77
2023/05/11 05:15:20;;;;;;;35.03;22.30;;;12.90;99.90;;;;;;5041913;28;20124;-78
2023/05/11 05:17:45;;;;;;;25.92;17.50;;;12.90;99.90;;;;;;5002884;28;20520;-77
2023/05/11 05:20:11;;;;;;;26.30;16.90;;;12.90;99.90;;;;;;5025730;28;20029;-77
2023/05/11 05:22:37;;;;;;;29.63;18.05;;;13.00;99.90;;;;;;5021444;28;20076;-78
2023/05/11 05:25:02;;;;;;;25.25;18.55;;;13.10;99.90;;;;;;5004114;28;20056;-77
2023/05/11 05:27:28;;;;;;;30.23;19.30;;;13.10;99.90;;;;;;5023381;28;20041;-77
2023/05/11 05:29:53;;;;;;;28.85;18.98;;;13.20;99.90;;;;;;5022032;28;20030;-77
2023/05/11 05:32:19;;;;;;;30.73;19.60;;;13.20;99.90;;;;;;5025250;28;20451;-77
2023/05/11 05:34:48;;;;;;;29.42;19.40;;;13.20;99.90;;;;;;5024761;28;20029;-77
2023/05/11 05:37:13;;;;;;;29.05;18.08;;;13.20;99.90;;;;;;5019006;28;20029;-78
2023/05/11 05:39:39;;;;;;;27.52;17.85;;;13.20;99.90;;;;;;5043819;28;20503;-77
2023/05/11 05:42:05;;;;;;;35.92;21.75;;;13.30;99.90;;;;;;5028512;28;20037;-78
2023/05/11 05:44:30;;;;;;;39.30;23.25;;;13.30;99.90;;;;;;5030049;28;20040;-76
2023/05/11 05:46:56;;;;;;;37.58;22.10;;;13.40;99.90;;;;;;5044123;28;20036;-78
2023/05/11 05:49:21;;;;;;;34.45;20.05;;;13.30;99.90;;;;;;5028131;28;20234;-78
2023/05/11 05:51:47;;;;;;;43.00;25.63;;;13.40;99.90;;;;;;5028632;28;20091;-75
2023/05/11 05:54:12;;;;;;;39.90;23.27;;;13.40;99.90;;;;;;5028166;28;20052;-78
2023/05/11 05:56:39;;;;;;;41.60;24.52;;;13.60;99.90;;;;;;5028042;28;20037;-79
2023/05/11 05:59:06;;;;;;;32.72;19.55;;;13.60;99.90;;;;;;5010392;28;20555;-77
2023/05/11 06:01:31;;;;;;;36.53;21.10;;;13.80;99.90;;;;;;5008282;28;20412;-78
2023/05/11 06:03:57;;;;;;;31.52;18.75;;;14.00;99.90;;;;;;5028028;28;20025;-77
2023/05/11 06:06:22;;;;;;;32.03;19.38;;;14.10;99.90;;;;;;5009453;28;20492;-78
2023/05/11 06:08:48;;;;;;;39.47;21.73;;;14.10;99.90;;;;;;5041118;28;20036;-77
2023/05/11 06:11:14;;;;;;;37.80;22.50;;;14.20;99.90;;;;;;5042773;28;20385;-77
2023/05/11 06:13:40;;;;;;;30.55;18.02;;;14.50;99.90;;;;;;5027528;28;20035;-77
2023/05/11 06:16:06;;;;;;;29.67;18.40;;;14.70;99.90;;;;;;5040405;28;20508;-77
2023/05/11 06:18:31;;;;;;;37.70;23.33;;;14.90;99.90;;;;;;5010664;28;20661;-77
2023/05/11 06:20:58;;;;;;;35.58;19.73;;;15.00;99.90;;;;;;5029260;28;20029;-77
2023/05/11 06:23:24;;;;;;;29.42;18.90;;;15.30;99.90;;;;;;5004997;28;20492;-77
2023/05/11 06:25:49;;;;;;;29.48;18.77;;;15.50;99.90;;;;;;5025597;28;20456;-77
2023/05/11 06:28:15;;;;;;;31.52;20.80;;;15.60;99.90;;;;;;5042978;28;20022;-77
2023/05/11 06:30:41;;;;;;;33.70;21.48;;;15.70;99.90;;;;;;5027992;28;20044;-75
2023/05/11 06:33:06;;;;;;;27.48;18.38;;;15.90;99.90;;;;;;5041556;28;20389;-75
2023/05/11 06:35:32;;;;;;;30.10;20.15;;;16.10;99.90;;;;;;5025847;28;20041;-76
2023/05/11 06:37:58;;;;;;;29.30;20.30;;;16.30;99.90;;;;;;5028372;28;20116;-76
2023/05/11 06:40:24;;;;;;;29.67;22.00;;;16.50;99.90;;;;;;5027879;28;20057;-75
2023/05/11 06:42:49;;;;;;;33.47;22.38;;;16.70;99.90;;;;;;5027492;28;20079;-76
2023/05/11 06:45:15;;;;;;;27.95;19.35;;;16.90;99.90;;;;;;5026184;28;20053;-76
2023/05/11 06:47:41;;;;;;;27.23;17.95;;;17.00;99.90;;;;;;5027230;28;20041;-76
2023/05/11 06:50:07;;;;;;;31.75;20.55;;;17.20;99.90;;;;;;5027172;28;20025;-76
2023/05/11 06:52:32;;;;;;;32.67;21.42;;;17.40;99.90;;;;;;5025647;28;20144;-78
2023/05/11 06:54:58;;;;;;;31.00;21.25;;;17.50;99.90;;;;;;5026222;28;20586;-78
2023/05/11 06:57:24;;;;;;;29.10;18.80;;;17.60;99.90;;;;;;5026729;28;20029;-76
2023/05/11 06:59:49;;;;;;;26.58;18.67;;;17.80;99.90;;;;;;5027210;28;20397;-78
2023/05/11 07:02:15;;;;;;;25.02;15.70;;;17.90;99.90;;;;;;5027191;28;20075;-75
2023/05/11 07:04:40;;;;;;;25.45;17.35;;;18.00;99.90;;;;;;5025834;28;20025;-77
2023/05/11 07:07:06;;;;;;;26.55;19.48;;;18.00;99.90;;;;;;5007511;28;20513;-76
2023/05/11 07:09:31;;;;;;;23.67;17.00;;;18.00;99.90;;;;;;5027739;28;20663;-77
2023/05/11 07:11:57;;;;;;;25.55;18.38;;;18.10;99.90;;;;;;5027426;28;20093;-76
2023/05/11 07:14:22;;;;;;;23.60;17.50;;;18.20;99.90;;;;;;5010647;28;20377;-76
2023/05/11 07:16:51;;;;;;;24.02;16.67;;;18.50;99.90;;;;;;5044396;28;20036;-76
2023/05/11 07:19:17;;;;;;;21.52;15.07;;;18.70;99.90;;;;;;5026303;28;20040;-76
2023/05/11 07:21:42;;;;;;;20.05;14.52;;;19.00;99.90;;;;;;5042266;28;20021;-76
2023/05/11 07:24:08;;;;;;;24.08;16.67;;;19.10;99.90;;;;;;5027071;28;20488;-76
2023/05/11 07:26:33;;;;;;;24.05;16.92;;;19.20;99.90;;;;;;5043728;28;20124;-76
2023/05/11 07:28:59;;;;;;;22.85;17.17;;;19.40;99.90;;;;;;5026591;28;20037;-75
2023/05/11 07:31:25;;;;;;;21.15;16.23;;;19.70;99.90;;;;;;5024079;28;20036;-76
2023/05/11 07:33:50;;;;;;;22.92;15.48;;;20.00;99.90;;;;;;5044419;28;20441;-76
2023/05/11 07:36:17;;;;;;;20.52;15.70;;;20.20;99.90;;;;;;5042805;28;20485;-76
2023/05/11 07:38:42;;;;;;;20.15;14.77;;;20.50;99.90;;;;;;5025954;28;20551;-77
2023/05/11 07:41:08;;;;;;;18.77;12.30;;;20.40;99.90;;;;;;5025130;28;20033;-76
2023/05/11 07:43:33;;;;;;;19.23;14.85;;;20.50;99.90;;;;;;5010382;28;20048;-76
2023/05/11 07:45:59;;;;;;;19.75;14.25;;;20.40;99.90;;;;;;5041838;28;20063;-76
2023/05/11 07:48:25;;;;;;;18.40;13.95;;;20.50;99.90;;;;;;5027382;28;20017;-76
2023/05/11 07:50:50;;;;;;;21.45;15.27;;;20.50;99.90;;;;;;5025907;28;20685;-77
2023/05/11 07:53:16;;;;;;;20.35;15.85;;;20.40;99.90;;;;;;5026867;28;20029;-76
2023/05/11 07:55:41;;;;;;;20.52;13.98;;;20.50;99.90;;;;;;5025207;28;20048;-76
2023/05/11 07:58:07;;;;;;;22.15;17.17;;;20.40;99.90;;;;;;5039967;28;20057;-77
2023/05/11 08:00:33;;;;;;;23.70;16.15;;;20.50;99.90;;;;;;5025500;28;20033;-77
2023/05/11 08:02:58;;;;;;;24.20;16.42;;;20.60;99.90;;;;;;5042838;28;20063;-77
2023/05/11 08:05:24;;;;;;;17.77;12.15;;;20.60;99.90;;;;;;5025784;28;20043;-76
2023/05/11 08:07:50;;;;;;;17.48;11.32;;;20.70;99.90;;;;;;5024252;28;20068;-76
2023/05/11 08:10:16;;;;;;;19.90;14.88;;;20.60;99.90;;;;;;5024332;28;20090;-76
2023/05/11 08:12:41;;;;;;;21.25;15.68;;;20.70;99.90;;;;;;5026075;28;20032;-76
2023/05/11 08:15:07;;;;;;;19.95;13.15;;;20.90;99.90;;;;;;5043252;28;20090;-77
2023/05/11 08:17:33;;;;;;;21.27;16.10;;;20.90;99.90;;;;;;5026402;28;20025;-76
2023/05/11 08:19:59;;;;;;;25.17;17.17;;;20.90;99.90;;;;;;5040918;28;20112;-76
2023/05/11 08:22:25;;;;;;;22.50;16.58;;;21.30;99.90;;;;;;5008525;28;20037;-76
2023/05/11 08:24:50;;;;;;;22.08;15.57;;;21.60;99.90;;;;;;5024623;28;20616;-76
2023/05/11 08:27:16;;;;;;;16.83;13.07;;;21.90;99.90;;;;;;5024184;28;20029;-75
2023/05/11 08:29:42;;;;;;;21.08;16.98;;;22.00;99.90;;;;;;5039394;28;20124;-75
2023/05/11 08:32:07;;;;;;;18.15;13.35;;;22.20;99.90;;;;;;5008775;28;20067;-79
2023/05/11 08:34:33;;;;;;;22.80;16.20;;;22.30;99.90;;;;;;5009280;28;20025;-78
2023/05/11 08:37:00;;;;;;;18.75;13.60;;;22.30;99.90;;;;;;5035451;28;20032;-77
2023/05/11 08:39:26;;;;;;;18.83;15.38;;;22.50;99.90;;;;;;5025205;28;20040;-77
2023/05/11 08:41:52;;;;;;;22.35;17.92;;;22.70;99.90;;;;;;5025243;28;20029;-77
2023/05/11 08:44:18;;;;;;;21.35;14.85;;;22.90;99.90;;;;;;5041315;28;20032;-77
2023/05/11 08:46:45;;;;;;;23.58;17.10;;;23.20;99.90;;;;;;5008395;28;20108;-78
2023/05/11 08:49:12;;;;;;;19.88;14.77;;;23.30;99.90;;;;;;5007553;28;20026;-78
2023/05/11 08:51:37;;;;;;;18.55;15.10;;;23.30;99.90;;;;;;5024376;28;20468;-78
2023/05/11 08:54:06;;;;;;;17.17;12.98;;;23.20;99.90;;;;;;5009275;28;20033;-77
2023/05/11 08:56:31;;;;;;;16.67;14.32;;;23.40;99.90;;;;;;5007931;28;20029;-77
2023/05/11 08:58:57;;;;;;;18.20;13.80;;;23.50;99.90;;;;;;5039745;28;20033;-78
2023/05/11 09:01:22;;;;;;;17.58;14.60;;;23.60;99.90;;;;;;5023855;28;20021;-78
2023/05/11 09:03:48;;;;;;;17.10;13.48;;;23.60;99.90;;;;;;5037489;28;20057;-77
2023/05/11 09:06:14;;;;;;;18.08;14.00;;;23.70;99.90;;;;;;5040489;28;20033;-78
2023/05/11 09:08:40;;;;;;;19.50;13.43;;;24.10;99.90;;;;;;5023085;28;20029;-78
2023/05/11 09:11:05;;;;;;;15.85;12.07;;;24.20;99.90;;;;;;5023799;28;20045;-76
2023/05/11 09:13:31;;;;;;;15.52;12.23;;;24.10;99.90;;;;;;5024605;28;20465;-76
2023/05/11 09:15:57;;;;;;;15.25;11.02;;;24.00;99.90;;;;;;5033533;28;20533;-76
2023/05/11 09:18:23;;;;;;;16.42;12.35;;;24.20;99.90;;;;;;5024566;28;20025;-77
2023/05/11 09:20:49;;;;;;;14.15;11.00;;;24.20;99.90;;;;;;5037843;28;20033;-76
2023/05/11 09:23:17;;;;;;;16.00;12.77;;;24.20;99.90;;;;;;5024809;28;20033;-77
2023/05/11 09:25:43;;;;;;;16.75;11.30;;;24.30;99.90;;;;;;5039152;28;20033;-76
2023/05/11 09:28:12;;;;;;;17.17;12.68;;;24.50;99.90;;;;;;5040698;28;20044;-77
2023/05/11 09:30:37;;;;;;;15.77;12.32;;;24.60;99.90;;;;;;5009245;28;20480;-76
2023/05/11 09:33:03;;;;;;;15.60;12.23;;;24.60;99.90;;;;;;5039485;28;20036;-76
2023/05/11 09:35:33;;;;;;;15.35;12.63;;;24.30;99.90;;;;;;5020224;28;20041;-76
2023/05/11 09:38:09;;;;;;;15.52;11.25;;;24.00;99.90;;;;;;5024048;28;20072;-78
2023/05/11 09:40:36;;;;;;;14.18;11.15;;;23.90;99.90;;;;;;5023073;28;20045;-78
2023/05/11 09:43:02;;;;;;;14.02;10.75;;;24.10;99.90;;;;;;5024363;28;20039;-76
2023/05/11 09:45:38;;;;;;;15.82;11.05;;;23.70;99.90;;;;;;5041622;28;20395;-78
2023/05/11 09:48:05;;;;;;;;;;;23.10;99.90;;;;;;5023295;28;20038;-76
2023/05/11 09:50:34;;;;;;;14.38;12.15;;;23.70;99.90;;;;;;5041486;28;20276;-79
2023/05/11 09:52:59;;;;;;;15.02;11.85;;;23.70;99.90;;;;;;5008993;28;20032;-75
2023/05/11 09:55:25;;;;;;;16.35;12.07;;;23.90;99.90;;;;;;5040052;28;20477;-78
2023/05/11 09:57:58;;;;;;;13.88;10.73;;;24.10;99.90;;;;;;5037872;28;20030;-79
2023/05/11 10:00:26;;;;;;;20.48;14.90;;;24.50;99.90;;;;;;5023707;28;20765;-79
2023/05/11 10:02:59;;;;;;;15.15;10.80;;;25.10;99.90;;;;;;5024634;28;20033;-76
2023/05/11 10:05:25;;;;;;;17.02;14.77;;;25.10;99.90;;;;;;5041191;28;20055;-79
2023/05/11 10:08:03;;;;;;;14.15;12.02;;;25.10;99.90;;;;;;5023761;28;20497;-78
2023/05/11 10:10:30;;;;;;;16.15;12.43;;;25.20;99.90;;;;;;5015182;28;20397;-79
2023/05/11 10:13:00;;;;;;;19.85;14.57;;;25.40;99.90;;;;;;5012576;28;20457;-77
2023/05/11 10:15:27;;;;;;;17.10;11.05;;;25.40;99.90;;;;;;5016284;28;20033;-77
2023/05/11 10:17:56;;;;;;;14.73;11.32;;;25.70;99.90;;;;;;5023462;28;20059;-77
2023/05/11 10:20:25;;;;;;;13.90;10.73;;;25.50;99.50;;;;;;5037436;28;20025;-76
2023/05/11 10:22:52;;;;;;;18.05;11.98;;;24.30;98.80;;;;;;5036705;28;20030;-77
2023/05/11 10:25:18;;;;;;;15.38;12.80;;;24.20;98.90;;;;;;5039588;28;20025;-77
2023/05/11 10:27:44;;;;;;;17.90;14.35;;;24.50;99.50;;;;;;5043846;28;20142;-77
2023/05/11 10:30:10;;;;;;;13.88;10.02;;;25.30;99.70;;;;;;5046058;28;20120;-77
2023/05/11 10:32:38;;;;;;;17.17;14.50;;;25.40;98.70;;;;;;5044032;28;20033;-77
2023/05/11 10:35:05;;;;;;;19.08;13.25;;;25.30;98.60;;;;;;5044536;28;20033;-77
2023/05/11 10:37:31;;;;;;;13.70;11.85;;;25.20;98.80;;;;;;5017167;28;20491;-77
2023/05/11 10:39:57;;;;;;;18.55;14.82;;;25.10;97.70;;;;;;5015949;28;20029;-77
2023/05/11 10:42:48;;;;;;;16.83;13.13;;;25.10;97.70;;;;;;5010929;28;20033;-77
2023/05/11 10:45:41;;;;;;;18.67;15.93;;;25.00;97.70;;;;;;5044294;28;20106;-78
2023/05/11 10:48:12;;;;;;;25.15;17.05;;;24.80;97.00;;;;;;5044249;28;20025;-78
2023/05/11 10:50:53;;;;;;;20.58;16.95;;;24.50;97.20;;;;;;5044708;28;20041;-77
2023/05/11 10:53:34;;;;;;;16.45;13.65;;;24.20;97.50;;;;;;5045592;28;20021;-77
2023/05/11 10:56:13;;;;;;;35.65;23.95;;;23.90;97.80;;;;;;5026277;28;20037;-77
2023/05/11 10:58:47;;;;;;;32.38;24.95;;;23.60;99.10;;;;;;5044166;28;20128;-77
2023/05/11 11:01:40;;;;;;;25.20;18.52;;;23.30;99.90;;;;;;5042735;28;20057;-77
2023/05/11 11:04:10;;;;;;;46.50;27.17;;;22.70;99.90;;;;;;5026155;28;20056;-77
2023/05/11 11:06:37;;;;;;;50.70;27.65;;;22.10;99.90;;;;;;5008417;28;20045;-78
2023/05/11 11:09:12;;;;;;;56.65;26.02;;;21.50;99.90;;;;;;5026269;28;20029;-79
2023/05/11 11:11:38;;;;;;;39.35;25.02;;;20.90;99.90;;;;;;5027371;28;20090;-79
2023/05/11 11:14:06;;;;;;;40.13;25.52;;;20.40;99.90;;;;;;5010749;28;20652;-79
2023/05/11 11:16:32;;;;;;;36.97;23.63;;;20.10;99.90;;;;;;5027259;28;20425;-79
2023/05/11 11:19:37;;;;;;;41.42;25.17;;;19.90;99.90;;;;;;5036503;28;20048;-79
2023/05/11 11:22:02;;;;;;;38.10;24.75;;;19.80;99.90;;;;;;5042230;28;20040;-79
2023/05/11 11:24:37;;;;;;;34.95;25.35;;;19.50;99.90;;;;;;5027502;28;20029;-79
2023/05/11 11:27:03;;;;;;;37.08;25.58;;;19.20;99.90;;;;;;5043122;28;20040;-79
2023/05/11 11:29:29;;;;;;;38.78;26.33;;;19.00;99.90;;;;;;5041988;28;20044;-79
2023/05/11 11:31:55;;;;;;;28.13;20.40;;;18.70;99.90;;;;;;5043001;28;20528;-79
2023/05/11 11:34:31;;;;;;;29.05;22.10;;;18.70;99.90;;;;;;5009950;28;20037;-79
2023/05/11 11:36:57;;;;;;;37.47;25.73;;;18.60;99.90;;;;;;5023553;28;20507;-79
2023/05/11 11:39:25;;;;;;;36.90;26.15;;;18.60;99.90;;;;;;5045646;28;20055;-79
2023/05/11 11:42:01;;;;;;;35.90;25.27;;;18.40;99.90;;;;;;5027378;28;20536;-80
2023/05/11 11:44:27;;;;;;;34.60;21.80;;;18.40;99.90;;;;;;5007595;28;20068;-79
2023/05/11 11:47:14;;;;;;;30.77;21.85;;;18.50;99.90;;;;;;5039249;28;20482;-80
2023/05/11 11:49:41;;;;;;;33.60;22.42;;;18.60;99.90;;;;;;5045182;28;20110;-80
2023/05/11 11:52:34;;;;;;;34.70;23.60;;;18.80;99.90;;;;;;5026333;28;20125;-79
2023/05/11 11:55:02;;;;;;;34.28;23.15;;;18.90;99.90;;;;;;5026891;28;20048;-79
2023/05/11 11:57:33;;;;;;;34.65;24.50;;;19.10;99.90;;;;;;5026943;28;20508;-79
2023/05/11 11:59:59;;;;;;;35.50;24.38;;;19.30;99.90;;;;;;5042656;28;20063;-79
2023/05/11 12:02:26;;;;;;;34.58;22.90;;;19.50;99.90;;;;;;5025075;28;20769;-79
2023/05/11 12:04:59;;;;;;;25.80;17.98;;;19.70;99.90;;;;;;5026055;28;20037;-79
2023/05/11 12:07:25;;;;;;;27.08;19.17;;;19.80;99.90;;;;;;5024305;28;20029;-79
2023/05/11 12:09:51;;;;;;;27.15;20.70;;;20.00;99.90;;;;;;5010012;28;20635;-79
2023/05/11 12:12:18;;;;;;;23.73;17.48;;;20.20;99.90;;;;;;5026541;28;20044;-79
2023/05/11 12:14:47;;;;;;;21.70;16.60;;;20.40;99.90;;;;;;5010495;28;20120;-79
2023/05/11 12:17:15;;;;;;;20.45;14.13;;;20.60;99.90;;;;;;5043411;28;20039;-78
2023/05/11 12:19:41;;;;;;;29.88;21.35;;;20.80;99.90;;;;;;5026498;28;20025;-79
2023/05/11 12:22:09;;;;;;;26.27;20.13;;;20.90;99.90;;;;;;5009755;28;20566;-78
2023/05/11 12:24:37;;;;;;;23.02;18.50;;;21.10;99.90;;;;;;5041216;28;20040;-78
2023/05/11 12:27:03;;;;;;;25.40;18.95;;;21.30;99.90;;;;;;5030925;28;20037;-79
2023/05/11 12:29:29;;;;;;;25.15;18.50;;;21.50;99.90;;;;;;5008268;28;20112;-79